Note: Certified Weather is only available to Registered Users.
Weather Page Abbreviations
Current METAR Grid                                                                               
Ceiling (100s Feet)
    LIFRIFRMVFRVFR    
    PINK < 5 ≤ RED < 10 ≤ BLUE < 30 ≤ GREEN    
Visibility (Miles)
    LIFRIFRMVFRVFR    
    PINK < 1 ≤ RED < 3 ≤ BLUE < 5 ≤ GREEN    
Wind Speed (Knots)
    Real WindyWindyBreezyLight
    PINK > 30 ≥ RED > 20 ≥ BLUE      > 10 ≥ GREEN    
Temperature (Celsius)
  ColdMildHot  
    BLUE ≤ 0 <GREEN < 30 ≤ RED  
AirportCeilingVisibilityWind SpeedTempMETAR
KBIDGREENGREENBLUEGREENKBID 271756Z AUTO 22011KT 10SM FEW039 23/17 A2999 RMK AO2 SLP158 T02280167 10228 20194 56018
METAR Reports
KBID 271756Z AUTO 22011KT 10SM FEW039 23/17 A2999 RMK AO2 SLP158 T02280167 10228
  20194 56018
KBID 271656Z AUTO 20011KT 10SM CLR 22/17 A3000 RMK AO2 SLP162 T02220167
KBID 271556Z AUTO 21012KT 10SM CLR 22/16 A3002 RMK AO2 SLP169 T02220161

Terminal Forecasts
View Plain Text

Forecast For KBID Not Found

Using Forecast For KPVD
KPVD 271737Z 2718/2818 23005KT P6SM -SHRA FEW020 BKN035 OVC100
FM280200 23005KT 6SM BR VCSH BKN010
FM281000 VRB03KT 1 1/2SM BR BKN010
FM281300 VRB03KT P6SM SCT015
FM281500 05004KT P6SM BKN060


Recent NOTAMs (new or modified) from the last 12 hours
  No NOTAMs were submitted for KBID in the last 12 hours
NOTAMs
TFR Flight RestrictionsCheck Approach/Airway FDC Notams for: KBID  
(International notams may be incomplete)
BID 02/014 BID RWY 10/28 SAFETY AREA NOT STD SE 1702081504-PERM

Nearby Departure Airport METARs
KGON 271756Z 19005KT 10SM FEW032 BKN110 22/17 A2996 RMK AO2 SLP145 T02170172
KOQU 271750Z 23012KT 12SM FEW030 BKN039 23/16 A2996
KPVD 271751Z 18003KT 10SM -RA BKN034 OVC050 23/18 A2997 RMK AO2 RAB23 SLP146 P0000 60000 T02280178
KEWB 271753Z 20010KT 10SM FEW021 SCT050 BKN100 21/17 A2996 RMK AO2 SLP145 T02110167
KMVY 271753Z 20013KT 10SM FEW015 23/18 A2998 RMK AO2 SLP153 T02280178

KGON = GROTON-NEW LONDON GROTON CT
KMVY = MARTHAS VINEYARD VINEYARD HAV MA
KEWB = NEW BEDFORD RGNL NEW BEDFORD MA
KOQU = QUONSET STATE N.KINGSTOWN RI
KSFZ = NORTH CENTRAL STATE PAWTUCKET RI
KPVD = THEODORE FRANCIS GREEN STATE PROVIDENCE RI
GPS NOTAMs
GPS 07/153 ZKC NAV (WSMR GPS 17-09) GPS (INCLUDING WAAS, GBAS, AND
        ADS-B) MAY NOT BE AVBL WI A 364NM RADIUS CENTERED AT 331424N1062147W
        (TCS 085046) FL400-UNL,
        313NM RADIUS AT FL250,
        261NM RADIUS AT 10000FT,
        261NM RADIUS AT 4000FT AGL,
        204NM RADIUS AT 50FT AGL.
        DLY 0300-1200
        1708010300-1708021200

GPS 07/130 ZKC NAV (WSMR GPS 17-09) GPS (INCLUDING WAAS, GBAS, AND
        ADS-B) MAY NOT BE AVBL WI A 364NM RADIUS CENTERED AT 331424N1062147W
        (TCS 085046) FL400-UNL,
        313NM RADIUS AT FL250,
        261NM RADIUS AT 10000FT,
        261NM RADIUS AT 4000FT AGL,
        204NM RADIUS AT 50FT AGL.
        1707290430-1707290700

GPS 07/121 ZAB NAV (WSMR GPS 17-12) GPS (INCLUDING WAAS, GBAS, AND
        ADS-B) MAY NOT BE AVBL WI A 254NM RADIUS CENTERED AT 321132N1060819W
        (ELP 010024) FL400-UNL,
        202NM RADIUS AT FL250,
        122NM RADIUS AT 10000FT,
        146NM RADIUS AT 4000FT AGL,
        85NM RADIUS AT 50FT AGL.
        1707271830-1707272230

GPS 07/126 ZAB NAV (WSMR GPS 17-12) GPS (INCLUDING WAAS, GBAS, AND
        ADS-B) MAY NOT BE AVBL WI A 254NM RADIUS CENTERED AT 321132N1060819W
        (ELP 010024) FL400-UNL,
        202NM RADIUS AT FL250,
        122NM RADIUS AT 10000FT,
        146NM RADIUS AT 4000FT AGL,
        85NM RADIUS AT 50FT AGL.
        1707282100-1707282230

GPS 07/129 ZAB NAV (WSMR GPS 17-09) GPS (INCLUDING WAAS, GBAS, AND
        ADS-B) MAY NOT BE AVBL WI A 364NM RADIUS CENTERED AT 331424N1062147W
        (TCS 085046) FL400-UNL,
        313NM RADIUS AT FL250,
        261NM RADIUS AT 10000FT,
        261NM RADIUS AT 4000FT AGL,
        204NM RADIUS AT 50FT AGL.
        1707290430-1707290700

GPS 07/149 ZAB NAV (WSMR GPS 17-12) GPS (INCLUDING WAAS, GBAS, AND
        ADS-B) MAY NOT BE AVBL WI A 254NM RADIUS CENTERED AT 321132N1060819W
        (ELP 010024) FL400-UNL,
        202NM RADIUS AT FL250,
        122NM RADIUS AT 10000FT,
        146NM RADIUS AT 4000FT AGL,
        85NM RADIUS AT 50FT AGL.
        DLY 1830-2230
        1707291830-1707302230

GPS 07/143 ZAB NAV (WSMR GPS 17-09) GPS (INCLUDING WAAS, GBAS, AND
        ADS-B) MAY NOT BE AVBL WI A 364NM RADIUS CENTERED AT 331424N1062147W
        (TCS 085046) FL400-UNL,
        313NM RADIUS AT FL250,
        261NM RADIUS AT 10000FT,
        261NM RADIUS AT 4000FT AGL,
        204NM RADIUS AT 50FT AGL.
        DLY 0300-0700
        1707300300-1707310700

GPS 07/123 ZFW NAV (FTPK GPS 17-35) GPS (INCLUDING WAAS, GBAS, AND
        ADS-B) MAY NOT BE AVBL WI A 45NM RADIUS CENTERED AT 310535N0930350W
        (AEX 250031) FL400-UNL,
        46NM RADIUS AT FL250,
        46NM RADIUS AT 10000FT,
        45NM RADIUS AT 4000FT AGL,
        23NM RADIUS AT 50FT AGL.
        DLY 1300-2300
        1707271300-1707292300

GPS 07/155 ZFW NAV (WSMR GPS 17-09) GPS (INCLUDING WAAS, GBAS, AND
        ADS-B) MAY NOT BE AVBL WI A 364NM RADIUS CENTERED AT 331424N1062147W
        (TCS 085046) FL400-UNL,
        313NM RADIUS AT FL250,
        261NM RADIUS AT 10000FT,
        261NM RADIUS AT 4000FT AGL,
        204NM RADIUS AT 50FT AGL.
        DLY 0300-1200
        1708010300-1708021200

GPS 07/150 ZFW NAV (WSMR GPS 17-12) GPS (INCLUDING WAAS, GBAS, AND
        ADS-B) MAY NOT BE AVBL WI A 254NM RADIUS CENTERED AT 321132N1060819W
        (ELP 010024) FL400-UNL,
        202NM RADIUS AT FL250,
        122NM RADIUS AT 10000FT,
        146NM RADIUS AT 4000FT AGL,
        85NM RADIUS AT 50FT AGL.
        DLY 1830-2230
        1707291830-1707302230

GPS 07/131 ZFW NAV (WSMR GPS 17-09) GPS (INCLUDING WAAS, GBAS, AND
        ADS-B) MAY NOT BE AVBL WI A 364NM RADIUS CENTERED AT 331424N1062147W
        (TCS 085046) FL400-UNL,
        313NM RADIUS AT FL250,
        261NM RADIUS AT 10000FT,
        261NM RADIUS AT 4000FT AGL,
        204NM RADIUS AT 50FT AGL.
        1707290430-1707290700

GPS 07/156 ZHU NAV (WSMR GPS 17-09) GPS (INCLUDING WAAS, GBAS, AND
        ADS-B) MAY NOT BE AVBL WI A 364NM RADIUS CENTERED AT 331424N1062147W
        (TCS 085046) FL400-UNL,
        313NM RADIUS AT FL250,
        261NM RADIUS AT 10000FT,
        261NM RADIUS AT 4000FT AGL,
        204NM RADIUS AT 50FT AGL.
        DLY 0300-1200
        1708010300-1708021200

GPS 07/146 ZHU NAV (WSMR GPS 17-09) GPS (INCLUDING WAAS, GBAS, AND
        ADS-B) MAY NOT BE AVBL WI A 364NM RADIUS CENTERED AT 331424N1062147W
        (TCS 085046) FL400-UNL,
        313NM RADIUS AT FL250,
        261NM RADIUS AT 10000FT,
        261NM RADIUS AT 4000FT AGL,
        204NM RADIUS AT 50FT AGL.
        DLY 0300-0700
        1707300300-1707310700

GPS 07/099 ZSE NAV (NTTR GPS 17-05) GPS (INCLUDING WAAS, GBAS, AND
        ADS-B) MAY NOT BE AVBL WI A 532NM RADIUS CENTERED AT
        372459N1161137W (BTY023046) FL400-UNL,
        520NM RADIUS AT FL250,
        434NM RADIUS AT 10000FT,
        427NM RADIUS AT 4000FT AGL,
        372NM RADIUS AT 50FT AGL.
        DLY 0430-0700
        1707270430-1707280700

GPS 07/104 ZOA NAV (NTTR GPS 17-05) GPS (INCLUDING WAAS, GBAS, AND
        ADS-B) MAY NOT BE AVBL WI A 532NM RADIUS CENTERED AT
        372459N1161137W (BTY023046) FL400-UNL,
        520NM RADIUS AT FL250,
        434NM RADIUS AT 10000FT,
        427NM RADIUS AT 4000FT AGL,
        372NM RADIUS AT 50FT AGL.
        DLY 0430-0700
        1707270430-1707280700

GPS 07/104 ZOA NAV (NTTR GPS 17-05) GPS (INCLUDING WAAS, GBAS, AND
        ADS-B) MAY NOT BE AVBL WI A 532NM RADIUS CENTERED AT
        372459N1161137W (BTY023046) FL400-UNL,
        520NM RADIUS AT FL250,
        434NM RADIUS AT 10000FT,
        427NM RADIUS AT 4000FT AGL,
        372NM RADIUS AT 50FT AGL.
        DLY 0430-0700
        1707270430-1707280700

GPS 07/157 ZLA NAV (WSMR GPS 17-09) GPS (INCLUDING WAAS, GBAS, AND
        ADS-B) MAY NOT BE AVBL WI A 364NM RADIUS CENTERED AT 331424N1062147W
        (TCS 085046) FL400-UNL,
        313NM RADIUS AT FL250,
        261NM RADIUS AT 10000FT,
        261NM RADIUS AT 4000FT AGL,
        204NM RADIUS AT 50FT AGL.
        DLY 0300-1200
        1708010300-1708021200

GPS 07/133 ZLA NAV (WSMR GPS 17-09) GPS (INCLUDING WAAS, GBAS, AND
        ADS-B) MAY NOT BE AVBL WI A 364NM RADIUS CENTERED AT 331424N1062147W
        (TCS 085046) FL400-UNL,
        313NM RADIUS AT FL250,
        261NM RADIUS AT 10000FT,
        261NM RADIUS AT 4000FT AGL,
        204NM RADIUS AT 50FT AGL.
        1707290430-1707290700

GPS 07/147 ZLA NAV (WSMR GPS 17-09) GPS (INCLUDING WAAS, GBAS, AND
        ADS-B) MAY NOT BE AVBL WI A 364NM RADIUS CENTERED AT 331424N1062147W
        (TCS 085046) FL400-UNL,
        313NM RADIUS AT FL250,
        261NM RADIUS AT 10000FT,
        261NM RADIUS AT 4000FT AGL,
        204NM RADIUS AT 50FT AGL.
        DLY 0300-0700
        1707300300-1707310700

GPS 07/140 ZDV NAV (YPG OPS 17-09) OPS (INCLUDING WAAS, OBAS, AND
        ADS-B) MAY NOT BE AVBL WI A 307NM RADIUS CENTERED AT
        325413N1135609W (BZA 065035) FL400-UNL,
        243NM RADIUS AT FL250,
        179NM RADIUS AT 10000FT,
        165NM RADIUS AT 4000FT AGL,
        119NM RADIUS AT 50FT AGL.
        1707291830-1707292100

GPS 07/101 ZDV NAV (NTTR GPS 17-05) GPS (INCLUDING WAAS, GBAS, AND
        ADS-B) MAY NOT BE AVBL WI A 532NM RADIUS CENTERED AT
        372459N1161137W (BTY023046) FL400-UNL,
        520NM RADIUS AT FL250,
        434NM RADIUS AT 10000FT,
        427NM RADIUS AT 4000FT AGL,
        372NM RADIUS AT 50FT AGL.
        DLY 0430-0700
        1707270430-1707280700

GPS 07/137 ZDV NAV (YPG GPS 17-06) GPS (INCLUDING WAAS, GBAS, AND
        ADS-B) MAY NOT BE AVBL WI A 307NM RADIUS CENTERED AT 325413N1135609W
        (BZA 064035) FL400-UNL,
        243NM RADIUS AT FL250,
        179NM RADIUS AT 10000FT,
        165NM RADIUS AT 4000FT AGL,
        119NM RADIUS AT 50FT AGL.
        1707281830-1707282100

GPS 07/100 ZLC NAV (NTTR GPS 17-05) GPS (INCLUDING WAAS, GBAS, AND
        ADS-B) MAY NOT BE AVBL WI A 532NM RADIUS CENTERED AT
        372459N1161137W (BTY023046) FL400-UNL,
        520NM RADIUS AT FL250,
        434NM RADIUS AT 10000FT,
        427NM RADIUS AT 4000FT AGL,
        372NM RADIUS AT 50FT AGL.
        DLY 0430-0700
        1707270430-1707280700

GPS 07/134 ZLC NAV (WSMR GPS 17-09) GPS (INCLUDING WAAS, GBAS, AND
        ADS-B) MAY NOT BE AVBL WI A 364NM RADIUS CENTERED AT 331424N1062147W
        (TCS 085046) FL400-UNL,
        313NM RADIUS AT FL250,
        261NM RADIUS AT 10000FT,
        261NM RADIUS AT 4000FT AGL,
        204NM RADIUS AT 50FT AGL.
        1707290430-1707290700

GPS 07/125 ZAN (JNAV FAK GPS 17-02) GPS (INCLUDING WAAS, GBAS, AND
        ADS-B) MAY NOT BE AVBL WI A 515NM RADIUS CENTERED AT 645447N1464448W
        (FAI 060033) FL400-UNL,
        470NM RADIUS AT FL250,
        386NM RADIUS AT 10000FT,
        342NM RADIUS AT 4000FT AGL,
        338NM RADIUS AT 50FT AGL.
        1707281800-1707290300